»·PEaware :: N950AX L52-KFAT

N950AX :: L52-KFAT

FLIGHT INFORMATION

Flight Status: Arrived
Operator: Privately registered:
United States
More flights under this callsign
Pilot: Thomas S. (17015)
Aircraft: SOCATA TBM-900
(TBM9)
More flights by this aircraft type
Origin: L52 Oceano Co
United States
Destination: KFAT Fresno Yosemite Intl
United States
More flights between these airports :: More routes between these airports
Route: AVE VIS
File this flight plan on PilotEdge
Remarks:
Altitude:
(Current/Filed)
5,500ft
Speed:
(Current/Filed)
220kts
Departed: 06-May-19 08:55 AM
Arrived: 06-May-19 09:33 AM
Distance/Time
Traveled:
109nm/0:37
Distance/Time
To Go:
Arrived

Flight Plot

Page will automatically refresh every two minutes.

Flight plan parsing failed; only flown route is shown


Map Options




Map Legend


Flown Route
Filed Route
Departure Airport
Arrival Airport
Navaid (VOR, NDB)
Fix

Horizontal Profiles

Position Reports

Time Latitude Longitude Heading Altitude Ground
Speed
06-May-19 08:39 35.103462 -120.624813 0 17ft 0kts
06-May-19 08:40 35.103462 -120.624813 213 17ft 0kts
06-May-19 08:41 35.103462 -120.624813 213 17ft 0kts
06-May-19 08:42 35.103462 -120.624813 213 17ft 0kts
06-May-19 08:43 35.103462 -120.624813 213 17ft 0kts
06-May-19 08:44 35.103462 -120.624813 213 17ft 0kts
06-May-19 08:45 35.103462 -120.624813 213 17ft 0kts
06-May-19 08:46 35.103462 -120.624813 213 17ft 0kts
06-May-19 08:47 35.103462 -120.624813 213 17ft 0kts
06-May-19 08:48 35.103462 -120.624813 213 17ft 0kts
06-May-19 08:49 35.103462 -120.624813 213 17ft 0kts
06-May-19 08:50 35.103462 -120.624813 213 17ft 0kts
06-May-19 08:51 35.103462 -120.624813 213 17ft 0kts
06-May-19 08:52 35.103462 -120.624813 213 17ft 0kts
06-May-19 08:53 35.103288 -120.625456 207 17ft 10kts
06-May-19 08:54 35.095179 -120.605500 83 601ft 135kts
06-May-19 08:55 35.132414 -120.584342 21 2658ft 152kts
06-May-19 08:56 35.163000 -120.550310 41 4560ft 152kts
06-May-19 08:57 35.193211 -120.514916 41 6114ft 156kts
06-May-19 08:58 35.225336 -120.477247 41 6544ft 228kts
06-May-19 08:59 35.271865 -120.422596 42 6504ft 251kts
06-May-19 09:00 35.318583 -120.367617 42 6501ft 253kts
06-May-19 09:01 35.349524 -120.331162 42 6499ft 254kts
06-May-19 09:02 35.388246 -120.285482 42 6496ft 254kts
06-May-19 09:03 35.432096 -120.233693 42 6488ft 254kts
06-May-19 09:04 35.482238 -120.174336 42 6474ft 254kts
06-May-19 09:05 35.531926 -120.115422 42 6472ft 253kts
06-May-19 09:06 35.581633 -120.056379 42 6472ft 254kts
06-May-19 09:07 35.631461 -119.997105 43 5597ft 242kts
06-May-19 09:08 35.689214 -119.949760 27 4467ft 235kts
06-May-19 09:09 35.749887 -119.908318 27 3926ft 237kts
06-May-19 09:10 35.817566 -119.861990 27 3460ft 245kts
06-May-19 09:11 35.878060 -119.820493 27 3454ft 250kts
06-May-19 09:12 35.935818 -119.780803 27 3454ft 250kts
06-May-19 09:13 35.995983 -119.739386 27 3454ft 250kts
06-May-19 09:14 36.057007 -119.697310 27 3454ft 251kts
06-May-19 09:15 36.111983 -119.659337 27 3454ft 251kts
06-May-19 09:16 36.169673 -119.619422 27 3454ft 251kts
06-May-19 09:17 36.232327 -119.576002 27 3455ft 250kts
06-May-19 09:18 36.285923 -119.538782 27 3454ft 251kts
06-May-19 09:19 36.345620 -119.497269 27 3454ft 251kts
06-May-19 09:20 36.408965 -119.506111 333 3456ft 247kts
06-May-19 09:21 36.470262 -119.541436 334 3454ft 247kts
06-May-19 09:22 36.532830 -119.577545 333 3452ft 248kts
06-May-19 09:23 36.595080 -119.613608 332 3456ft 243kts
06-May-19 09:24 36.592041 -119.646730 121 2585ft 197kts
06-May-19 09:25 36.616385 -119.629114 296 1900ft 125kts
06-May-19 09:26 36.609091 -119.673602 311 1363ft 138kts
06-May-19 09:27 36.648194 -119.696062 358 1647ft 169kts
06-May-19 09:28 36.689566 -119.690869 11 1849ft 164kts
06-May-19 09:29 36.732911 -119.679813 6 1698ft 122kts
06-May-19 09:30 36.758628 -119.691517 306 995ft 80kts
06-May-19 09:31 36.771386 -119.712082 304 362ft 71kts
06-May-19 09:32 36.776465 -119.722422 230 333ft 17kts
06-May-19 09:33 36.776326 -119.725804 301 333ft 9kts
06-May-19 09:34 36.776160 -119.726596 214 333ft 0kts
06-May-19 09:35 36.776160 -119.726596 214 333ft 0kts
06-May-19 09:36 36.776159 -119.726597 214 333ft 0kts
06-May-19 09:37 36.775933 -119.726774 41 333ft 0kts
06-May-19 09:38 36.775933 -119.726774 41 333ft 0kts
06-May-19 09:39 36.775933 -119.726774 41 333ft 0kts
06-May-19 09:40 36.775933 -119.726774 41 333ft 0kts
06-May-19 09:41 36.775933 -119.726774 41 333ft 0kts
06-May-19 09:42 36.775933 -119.726774 41 333ft 0kts
06-May-19 09:43 36.775933 -119.726774 41 333ft 0kts
06-May-19 09:44 36.775933 -119.726774 41 333ft 0kts
06-May-19 09:45 36.775933 -119.726774 41 333ft 0kts
06-May-19 09:46 36.775933 -119.726774 41 333ft 0kts

Navigation Log

Ident Type
Flight plan parsing failed, navigation log unavailable